createdAt,value
2019-01-20T00:00:38.336Z,-2.00
2019-01-20T00:01:38.925Z,-1.88
2019-01-20T00:02:39.522Z,-1.97
2019-01-20T00:03:40.110Z,-1.94
2019-01-20T00:04:40.693Z,-1.91
2019-01-20T00:05:41.281Z,-1.97
2019-01-20T00:06:41.873Z,-1.97
2019-01-20T00:07:42.463Z,-1.99
2019-01-20T00:08:43.045Z,-1.99
2019-01-20T00:09:43.637Z,-1.96
2019-01-20T00:10:44.228Z,-1.99
2019-01-20T00:11:44.811Z,-1.96
2019-01-20T00:12:45.409Z,-1.93
2019-01-20T00:13:45.996Z,-1.94
2019-01-20T00:14:46.588Z,-2.00
2019-01-20T00:15:47.169Z,-1.97
2019-01-20T00:16:47.757Z,-1.99
2019-01-20T00:17:48.339Z,-1.99
2019-01-20T00:18:48.929Z,-1.94
2019-01-20T00:19:49.516Z,-1.94
2019-01-20T00:20:50.099Z,-1.97
2019-01-20T00:21:51.444Z,-1.94
2019-01-20T00:22:51.278Z,-1.94
2019-01-20T00:23:51.866Z,-1.91
2019-01-20T00:24:52.468Z,-1.99
2019-01-20T00:25:53.068Z,-2.03
2019-01-20T00:26:53.644Z,-2.01
2019-01-20T00:27:54.227Z,-2.09
2019-01-20T00:28:54.821Z,-2.06
2019-01-20T00:29:55.409Z,-2.03
2019-01-20T00:30:55.995Z,-1.97
2019-01-20T00:31:56.588Z,-2.04
2019-01-20T00:32:57.179Z,-2.04
2019-01-20T00:33:57.778Z,-2.04
2019-01-20T00:34:58.377Z,-2.07
2019-01-20T00:35:58.956Z,-2.04
2019-01-20T00:36:59.548Z,-2.11
2019-01-20T00:38:00.144Z,-2.07
2019-01-20T00:39:00.731Z,-2.12
2019-01-20T00:40:01.333Z,-2.09
2019-01-20T00:41:01.912Z,-2.15
2019-01-20T00:42:02.497Z,-2.12
2019-01-20T00:43:03.090Z,-2.18
2019-01-20T00:44:03.674Z,-2.18
2019-01-20T00:45:04.265Z,-2.21
2019-01-20T00:46:04.857Z,-2.21
2019-01-20T00:47:05.448Z,-2.24
2019-01-20T00:48:06.038Z,-2.24
2019-01-20T00:49:06.633Z,-2.25
2019-01-20T00:50:07.226Z,-2.22
2019-01-20T00:51:07.818Z,-2.36
2019-01-20T00:52:08.409Z,-2.25
2019-01-20T00:53:08.999Z,-2.34
2019-01-20T00:54:09.590Z,-2.33
2019-01-20T00:55:10.181Z,-2.34
2019-01-20T00:56:10.768Z,-2.33
2019-01-20T00:57:11.354Z,-2.30
2019-01-20T00:58:11.949Z,-2.40
2019-01-20T00:59:12.529Z,-2.37
2019-01-20T01:00:13.119Z,-2.37
2019-01-20T01:01:13.726Z,-2.41
2019-01-20T01:02:14.320Z,-2.41
2019-01-20T01:03:14.902Z,-2.38
2019-01-20T01:04:15.491Z,-2.46
2019-01-20T01:05:16.082Z,-2.38
2019-01-20T01:06:16.673Z,-2.51
2019-01-20T01:07:17.256Z,-2.48
2019-01-20T01:08:17.848Z,-2.46
2019-01-20T01:09:18.439Z,-2.52
2019-01-20T01:10:19.023Z,-2.54
2019-01-20T01:11:19.616Z,-2.59
2019-01-20T01:12:20.210Z,-2.57
2019-01-20T01:13:20.797Z,-2.52
2019-01-20T01:14:21.382Z,-2.58
2019-01-20T01:15:21.967Z,-2.57
2019-01-20T01:16:22.561Z,-2.54
2019-01-20T01:17:23.148Z,-2.52
2019-01-20T01:18:23.738Z,-2.59
2019-01-20T01:19:24.331Z,-2.55
2019-01-20T01:20:24.929Z,-2.57
2019-01-20T01:21:25.504Z,-2.59
2019-01-20T01:22:26.094Z,-2.57
2019-01-20T01:23:26.678Z,-2.69
2019-01-20T01:24:27.270Z,-2.61
2019-01-20T01:25:27.860Z,-2.62
2019-01-20T01:26:28.454Z,-2.59
2019-01-20T01:27:29.045Z,-2.59
2019-01-20T01:28:29.643Z,-2.58
2019-01-20T01:29:30.234Z,-2.54
2019-01-20T01:30:30.819Z,-2.57
2019-01-20T01:31:31.401Z,-2.55
2019-01-20T01:32:31.994Z,-2.61
2019-01-20T01:33:32.600Z,-2.58
2019-01-20T01:34:33.165Z,-2.61
2019-01-20T01:35:33.755Z,-2.57
2019-01-20T01:36:34.343Z,-2.59
2019-01-20T01:37:34.936Z,-2.57
2019-01-20T01:38:35.526Z,-2.59
2019-01-20T01:39:36.115Z,-2.55
2019-01-20T01:40:36.711Z,-2.61
2019-01-20T01:41:39.147Z,-2.55
2019-01-20T01:42:37.887Z,-2.55
2019-01-20T01:43:38.477Z,-2.51
2019-01-20T01:44:39.068Z,-2.52
2019-01-20T01:45:39.663Z,-2.58
2019-01-20T01:46:40.252Z,-2.51
2019-01-20T01:47:40.842Z,-2.52
2019-01-20T01:48:41.438Z,-2.54
2019-01-20T01:49:42.026Z,-2.54
2019-01-20T01:50:42.615Z,-2.54
2019-01-20T01:51:43.208Z,-2.54
2019-01-20T01:52:43.803Z,-2.58
2019-01-20T01:53:44.394Z,-2.59
2019-01-20T01:54:44.988Z,-2.59
2019-01-20T01:55:45.584Z,-2.66
2019-01-20T01:56:46.173Z,-2.67
2019-01-20T01:57:46.757Z,-2.67
2019-01-20T01:58:47.350Z,-2.55
2019-01-20T01:59:47.940Z,-2.61
2019-01-20T02:00:48.524Z,-2.59
2019-01-20T02:01:49.114Z,-2.57
2019-01-20T02:02:49.750Z,-2.70
2019-01-20T02:03:50.285Z,-2.66
2019-01-20T02:04:50.879Z,-2.67
2019-01-20T02:05:51.469Z,-2.59
2019-01-20T02:06:52.051Z,-2.62
2019-01-20T02:07:52.641Z,-2.66
2019-01-20T02:08:53.224Z,-2.57
2019-01-20T02:09:54.947Z,-2.58
2019-01-20T02:10:54.401Z,-2.58
2019-01-20T02:11:54.994Z,-2.64
2019-01-20T02:12:55.576Z,-2.66
2019-01-20T02:13:56.177Z,-2.70
2019-01-20T02:14:56.767Z,-2.64
2019-01-20T02:15:57.358Z,-2.69
2019-01-20T02:16:57.947Z,-2.67
2019-01-20T02:17:58.537Z,-2.66
2019-01-20T02:18:59.151Z,-2.61
2019-01-20T02:19:59.720Z,-2.75
2019-01-20T02:21:00.303Z,-2.75
2019-01-20T02:22:00.895Z,-2.70
2019-01-20T02:23:01.488Z,-2.64
2019-01-20T02:24:02.080Z,-2.75
2019-01-20T02:25:02.727Z,-2.77
2019-01-20T02:26:03.261Z,-2.76
2019-01-20T02:27:03.847Z,-2.70
2019-01-20T02:28:04.438Z,-2.73
2019-01-20T02:29:05.032Z,-2.76
2019-01-20T02:30:05.614Z,-2.76
2019-01-20T02:31:06.194Z,-2.66
2019-01-20T02:32:06.777Z,-2.70
2019-01-20T02:33:07.377Z,-2.72
2019-01-20T02:34:07.975Z,-2.75
2019-01-20T02:35:08.554Z,-2.76
2019-01-20T02:36:09.135Z,-2.75
2019-01-20T02:37:09.726Z,-2.79
2019-01-20T02:38:10.318Z,-2.75
2019-01-20T02:39:10.901Z,-2.73
2019-01-20T02:40:11.494Z,-2.73
2019-01-20T02:41:12.077Z,-2.75
2019-01-20T02:42:12.670Z,-2.75
2019-01-20T02:43:13.259Z,-2.75
2019-01-20T02:44:13.852Z,-2.77
2019-01-20T02:45:14.441Z,-2.77
2019-01-20T02:46:15.024Z,-2.83
2019-01-20T02:47:15.614Z,-2.85
2019-01-20T02:48:16.210Z,-2.79
2019-01-20T02:49:16.799Z,-2.83
2019-01-20T02:50:17.396Z,-2.83
2019-01-20T02:51:17.984Z,-2.82
2019-01-20T02:52:18.567Z,-2.80
2019-01-20T02:53:19.149Z,-2.80
2019-01-20T02:54:19.740Z,-2.76
2019-01-20T02:55:20.332Z,-2.79
2019-01-20T02:56:20.940Z,-2.83
2019-01-20T02:57:21.525Z,-2.77
2019-01-20T02:58:22.102Z,-2.76
2019-01-20T02:59:22.689Z,-2.82
2019-01-20T03:00:23.280Z,-2.83
2019-01-20T03:01:23.856Z,-2.82
2019-01-20T03:02:24.445Z,-2.80
2019-01-20T03:03:25.037Z,-2.83
2019-01-20T03:04:25.760Z,-2.82
2019-01-20T03:05:26.266Z,-2.79
2019-01-20T03:06:26.870Z,-2.83
2019-01-20T03:07:27.453Z,-2.80
2019-01-20T03:08:28.044Z,-2.88
2019-01-20T03:09:28.635Z,-2.88
2019-01-20T03:10:29.218Z,-2.83
2019-01-20T03:11:29.809Z,-2.90
2019-01-20T03:12:30.401Z,-2.88
2019-01-20T03:13:30.987Z,-2.95
2019-01-20T03:14:31.578Z,-2.88
2019-01-20T03:15:32.164Z,-3.06
2019-01-20T03:16:32.756Z,-3.00
2019-01-20T03:17:33.349Z,-3.06
2019-01-20T03:18:33.940Z,-2.98
2019-01-20T03:19:34.545Z,-3.05
2019-01-20T03:20:35.118Z,-2.97
2019-01-20T03:21:35.703Z,-2.95
2019-01-20T03:22:36.288Z,-2.98
2019-01-20T03:23:36.900Z,-2.98
2019-01-20T03:24:37.477Z,-3.08
2019-01-20T03:26:53.528Z,-2.95
2019-01-20T03:27:54.118Z,-2.85
2019-01-20T03:28:54.705Z,-2.97
2019-01-20T03:29:55.295Z,-3.04
2019-01-20T03:30:55.899Z,-3.00
2019-01-20T03:31:56.485Z,-3.01
2019-01-20T03:32:57.069Z,-3.00
2019-01-20T03:33:57.656Z,-3.00
2019-01-20T03:34:58.251Z,-2.98
2019-01-20T03:35:58.852Z,-2.97
2019-01-20T03:36:59.427Z,-3.06
2019-01-20T03:38:00.020Z,-3.00
2019-01-20T03:39:00.610Z,-2.95
2019-01-20T03:40:01.311Z,-3.01
2019-01-20T03:41:01.789Z,-3.00
2019-01-20T03:42:02.379Z,-2.94
2019-01-20T03:43:02.975Z,-2.95
2019-01-20T03:44:03.564Z,-3.01
2019-01-20T03:45:04.159Z,-2.98
2019-01-20T03:46:04.742Z,-3.05
2019-01-20T03:47:05.338Z,-3.08
2019-01-20T03:48:05.933Z,-3.01
2019-01-20T03:49:06.522Z,-3.01
2019-01-20T03:50:07.115Z,-2.97
2019-01-20T03:51:07.708Z,-3.04
2019-01-20T03:52:08.289Z,-3.06
2019-01-20T03:53:08.883Z,-3.05
2019-01-20T03:54:09.472Z,-3.00
2019-01-20T03:55:10.063Z,-2.95
2019-01-20T03:56:10.660Z,-3.05
2019-01-20T03:57:11.244Z,-3.00
2019-01-20T03:58:11.835Z,-3.06
2019-01-20T03:59:12.425Z,-3.09
2019-01-20T04:00:13.021Z,-3.09
2019-01-20T04:01:13.608Z,-3.08
2019-01-20T04:02:14.199Z,-3.06
2019-01-20T04:03:14.789Z,-3.12
2019-01-20T04:04:15.384Z,-3.11
2019-01-20T04:05:15.968Z,-3.04
2019-01-20T04:06:16.565Z,-3.09
2019-01-20T04:07:17.150Z,-3.05
2019-01-20T04:08:17.745Z,-3.11
2019-01-20T04:09:18.335Z,-3.08
2019-01-20T04:10:18.917Z,-3.11
2019-01-20T04:11:19.518Z,-3.08
2019-01-20T04:12:20.733Z,-3.12
2019-01-20T04:13:20.696Z,-3.09
2019-01-20T04:14:21.292Z,-3.09
2019-01-20T04:15:21.867Z,-3.06
2019-01-20T04:16:22.456Z,-3.05
2019-01-20T04:17:23.039Z,-3.04
2019-01-20T04:18:23.630Z,-3.05
2019-01-20T04:19:24.212Z,-3.12
2019-01-20T04:20:24.801Z,-3.05
2019-01-20T04:21:25.397Z,-3.14
2019-01-20T04:22:25.991Z,-3.14
2019-01-20T04:23:26.579Z,-3.05
2019-01-20T04:24:27.253Z,-3.08
2019-01-20T04:25:27.771Z,-3.11
2019-01-20T04:26:28.362Z,-3.12
2019-01-20T04:27:28.953Z,-3.11
2019-01-20T04:28:29.528Z,-3.19
2019-01-20T04:29:30.126Z,-3.23
2019-01-20T04:30:30.711Z,-3.21
2019-01-20T04:31:31.310Z,-3.14
2019-01-20T04:32:31.896Z,-3.23
2019-01-20T04:33:32.487Z,-3.16
2019-01-20T04:34:33.073Z,-3.23
2019-01-20T04:35:33.660Z,-3.23
2019-01-20T04:36:34.244Z,-3.19
2019-01-20T04:37:34.838Z,-3.21
2019-01-20T04:38:35.418Z,-3.24
2019-01-20T04:39:36.014Z,-3.32
2019-01-20T04:40:36.602Z,-3.23
2019-01-20T04:41:37.194Z,-3.26
2019-01-20T04:42:37.782Z,-3.33
2019-01-20T04:43:38.366Z,-3.30
2019-01-20T04:44:38.959Z,-3.32
2019-01-20T04:45:39.551Z,-3.36
2019-01-20T04:46:40.140Z,-3.36
2019-01-20T04:47:40.722Z,-3.34
2019-01-20T04:48:41.317Z,-3.37
2019-01-20T04:49:41.928Z,-3.33
2019-01-20T04:50:42.504Z,-3.34
2019-01-20T04:51:43.082Z,-3.33
2019-01-20T04:52:43.660Z,-3.36
2019-01-20T04:53:44.254Z,-3.41
2019-01-20T04:54:44.848Z,-3.34
2019-01-20T04:55:45.439Z,-3.37
2019-01-20T04:56:46.031Z,-3.36
2019-01-20T04:57:46.619Z,-3.37
2019-01-20T04:58:47.205Z,-3.42
2019-01-20T04:59:47.789Z,-3.47
2019-01-20T05:00:48.384Z,-3.48
2019-01-20T05:01:48.975Z,-3.50
2019-01-20T05:02:49.570Z,-3.39
2019-01-20T05:03:50.162Z,-3.44
2019-01-20T05:04:50.750Z,-3.44
2019-01-20T05:05:51.349Z,-3.44
2019-01-20T05:06:51.925Z,-3.51
2019-01-20T05:07:52.520Z,-3.48
2019-01-20T05:08:53.110Z,-3.52
2019-01-20T05:09:53.692Z,-3.52
2019-01-20T05:10:54.287Z,-3.54
2019-01-20T05:11:54.887Z,-3.57
2019-01-20T05:12:55.475Z,-3.57
2019-01-20T05:13:56.060Z,-3.54
2019-01-20T05:14:56.657Z,-3.50
2019-01-20T05:15:57.252Z,-3.55
2019-01-20T05:16:57.837Z,-3.54
2019-01-20T05:17:58.433Z,-3.65
2019-01-20T05:18:59.022Z,-3.66
2019-01-20T05:19:59.616Z,-3.65
2019-01-20T05:21:00.196Z,-3.57
2019-01-20T05:22:00.779Z,-3.63
2019-01-20T05:23:01.377Z,-3.57
2019-01-20T05:24:01.954Z,-3.61
2019-01-20T05:25:02.543Z,-3.58
2019-01-20T05:26:03.137Z,-3.57
2019-01-20T05:27:03.727Z,-3.55
2019-01-20T05:28:04.317Z,-3.57
2019-01-20T05:29:04.915Z,-3.57
2019-01-20T05:30:05.502Z,-3.51
2019-01-20T05:31:06.090Z,-3.48
2019-01-20T05:32:06.682Z,-3.55
2019-01-20T05:33:07.267Z,-3.51
2019-01-20T05:34:07.857Z,-3.50
2019-01-20T05:35:08.447Z,-3.54
2019-01-20T05:36:09.022Z,-3.58
2019-01-20T05:37:09.614Z,-3.58
2019-01-20T05:38:10.207Z,-3.58
2019-01-20T05:39:10.797Z,-3.63
2019-01-20T05:40:11.389Z,-3.58
2019-01-20T05:41:11.981Z,-3.51
2019-01-20T05:42:12.568Z,-3.61
2019-01-20T05:43:13.156Z,-3.65
2019-01-20T05:44:13.745Z,-3.58
2019-01-20T05:45:14.335Z,-3.55
2019-01-20T05:46:14.927Z,-3.58
2019-01-20T05:47:15.510Z,-3.57
2019-01-20T05:48:16.096Z,-3.66
2019-01-20T05:49:16.686Z,-3.62
2019-01-20T05:50:17.274Z,-3.58
2019-01-20T05:51:17.864Z,-3.68
2019-01-20T05:52:18.470Z,-3.63
2019-01-20T05:53:19.035Z,-3.62
2019-01-20T05:54:19.617Z,-3.57
2019-01-20T05:55:20.212Z,-3.58
2019-01-20T05:56:20.798Z,-3.62
2019-01-20T05:57:21.382Z,-3.57
2019-01-20T05:58:21.984Z,-3.52
2019-01-20T05:59:22.568Z,-3.57
2019-01-20T06:00:23.156Z,-3.58
2019-01-20T06:01:23.752Z,-3.52
2019-01-20T06:02:24.344Z,-3.54
2019-01-20T06:03:24.935Z,-3.51
2019-01-20T06:04:25.520Z,-3.52
2019-01-20T06:05:26.111Z,-3.61
2019-01-20T06:06:26.695Z,-3.62
2019-01-20T06:07:27.278Z,-3.52
2019-01-20T06:08:27.929Z,-3.50
2019-01-20T06:09:28.452Z,-3.52
2019-01-20T06:10:29.041Z,-3.50
2019-01-20T06:11:29.632Z,-3.61
2019-01-20T06:12:30.217Z,-3.52
2019-01-20T06:13:30.806Z,-3.50
2019-01-20T06:14:31.394Z,-3.55
2019-01-20T06:15:31.975Z,-3.54
2019-01-20T06:16:32.562Z,-3.45
2019-01-20T06:17:33.209Z,-3.41
2019-01-20T06:18:33.747Z,-3.54
2019-01-20T06:19:34.341Z,-3.54
2019-01-20T06:20:34.929Z,-3.50
2019-01-20T06:21:35.519Z,-3.51
2019-01-20T06:22:36.099Z,-3.52
2019-01-20T06:23:36.709Z,-3.52
2019-01-20T06:24:37.281Z,-3.45
2019-01-20T06:25:37.867Z,-3.51
2019-01-20T06:26:38.455Z,-3.45
2019-01-20T06:27:39.047Z,-3.44
2019-01-20T06:28:39.645Z,-3.54
2019-01-20T06:29:40.231Z,-3.61
2019-01-20T06:30:40.821Z,-3.52
2019-01-20T06:31:41.417Z,-3.52
2019-01-20T06:32:42.001Z,-3.55
2019-01-20T06:33:42.586Z,-3.55
2019-01-20T06:34:43.190Z,-3.54
2019-01-20T06:35:43.772Z,-3.55
2019-01-20T06:36:44.366Z,-3.50
2019-01-20T06:37:44.954Z,-3.51
2019-01-20T06:38:45.547Z,-3.52
2019-01-20T06:39:46.133Z,-3.51
2019-01-20T06:40:46.722Z,-3.50
2019-01-20T06:41:47.316Z,-3.58
2019-01-20T06:42:47.908Z,-3.61
2019-01-20T06:43:48.497Z,-3.57
2019-01-20T06:44:49.079Z,-3.55
2019-01-20T06:45:49.671Z,-3.57
2019-01-20T06:46:50.253Z,-3.63
2019-01-20T06:47:50.847Z,-3.58
2019-01-20T06:48:51.437Z,-3.58
2019-01-20T06:49:52.017Z,-3.57
2019-01-20T06:50:52.611Z,-3.62
2019-01-20T06:51:53.199Z,-3.57
2019-01-20T06:52:53.792Z,-3.62
2019-01-20T06:53:54.410Z,-3.57
2019-01-20T06:54:55.007Z,-3.62
2019-01-20T06:55:55.588Z,-3.58
2019-01-20T06:56:56.174Z,-3.62
2019-01-20T06:57:56.764Z,-3.65
2019-01-20T06:58:57.354Z,-3.61
2019-01-20T06:59:57.938Z,-3.66
2019-01-20T07:00:58.534Z,-3.55
2019-01-20T07:01:59.125Z,-3.62
2019-01-20T07:02:59.714Z,-3.63
2019-01-20T07:04:00.299Z,-3.57
2019-01-20T07:05:00.905Z,-3.61
2019-01-20T07:06:01.481Z,-3.54
2019-01-20T07:07:02.072Z,-3.61
2019-01-20T07:08:02.666Z,-3.55
2019-01-20T07:09:03.260Z,-3.63
2019-01-20T07:10:03.875Z,-3.63
2019-01-20T07:11:04.467Z,-3.55
2019-01-20T07:12:05.060Z,-3.54
2019-01-20T07:13:09.382Z,-3.57
2019-01-20T07:14:06.233Z,-3.62
2019-01-20T07:15:06.829Z,-3.58
2019-01-20T07:16:07.418Z,-3.57
2019-01-20T07:17:08.003Z,-3.62
2019-01-20T07:18:08.590Z,-3.63
2019-01-20T07:19:09.175Z,-3.63
2019-01-20T07:20:09.777Z,-3.66
2019-01-20T07:21:10.364Z,-3.62
2019-01-20T07:22:10.959Z,-3.63
2019-01-20T07:23:11.552Z,-3.66
2019-01-20T07:24:12.143Z,-3.62
2019-01-20T07:25:12.733Z,-3.69
2019-01-20T07:26:13.323Z,-3.71
2019-01-20T07:27:13.921Z,-3.68
2019-01-20T07:28:14.516Z,-3.61
2019-01-20T07:29:15.104Z,-3.65
2019-01-20T07:30:15.746Z,-3.55
2019-01-20T07:31:16.293Z,-3.65
2019-01-20T07:32:16.891Z,-3.58
2019-01-20T07:33:17.489Z,-3.58
2019-01-20T07:34:18.079Z,-3.55
2019-01-20T07:35:18.677Z,-3.55
2019-01-20T07:36:19.267Z,-3.58
2019-01-20T07:37:19.863Z,-3.57
2019-01-20T07:38:20.449Z,-3.58
2019-01-20T07:39:21.050Z,-3.61
2019-01-20T07:40:21.629Z,-3.57
2019-01-20T07:41:22.222Z,-3.65
2019-01-20T07:42:22.813Z,-3.58
2019-01-20T07:43:23.414Z,-3.52
2019-01-20T07:44:24.009Z,-3.61
2019-01-20T07:45:24.598Z,-3.57
2019-01-20T07:46:25.186Z,-3.62
2019-01-20T07:47:25.780Z,-3.58
2019-01-20T07:48:26.373Z,-3.61
2019-01-20T07:49:26.959Z,-3.58
2019-01-20T07:50:27.558Z,-3.58
2019-01-20T07:51:28.176Z,-3.52
2019-01-20T07:52:28.743Z,-3.51
2019-01-20T07:53:29.336Z,-3.45
2019-01-20T07:54:29.935Z,-3.42
2019-01-20T07:55:30.528Z,-3.24
2019-01-20T07:56:31.122Z,-3.21
2019-01-20T07:57:31.718Z,-3.14
2019-01-20T07:58:32.307Z,-2.97
2019-01-20T07:59:32.900Z,-2.85
2019-01-20T08:00:33.487Z,-2.82
2019-01-20T08:01:34.092Z,-2.77
2019-01-20T08:02:34.682Z,-2.73
2019-01-20T08:03:35.269Z,-2.57
2019-01-20T08:04:35.865Z,-2.43
2019-01-20T08:05:36.452Z,-2.30
2019-01-20T08:06:37.488Z,-2.24
2019-01-20T08:07:37.639Z,-2.07
2019-01-20T08:08:38.234Z,-1.99
2019-01-20T08:09:38.822Z,-1.83
2019-01-20T08:10:39.419Z,-1.86
2019-01-20T08:11:40.844Z,-1.81
2019-01-20T08:12:40.614Z,-1.81
2019-01-20T08:13:41.204Z,-1.61
2019-01-20T08:14:41.801Z,-1.67
2019-01-20T08:15:42.405Z,-1.58
2019-01-20T08:16:43.018Z,-1.60
2019-01-20T08:17:43.602Z,-1.49
2019-01-20T08:18:44.201Z,-1.50
2019-01-20T08:19:44.798Z,-1.36
2019-01-20T08:20:45.396Z,-1.29
2019-01-20T08:21:45.996Z,-1.21
2019-01-20T08:22:46.596Z,-1.22
2019-01-20T08:23:47.202Z,-1.11
2019-01-20T08:24:47.803Z,-1.10
2019-01-20T08:25:48.384Z,-1.08
2019-01-20T08:26:48.984Z,-0.98
2019-01-20T08:27:49.589Z,-0.86
2019-01-20T08:28:50.176Z,-0.93
2019-01-20T08:29:50.773Z,-1.01
2019-01-20T08:30:51.362Z,-1.11
2019-01-20T08:31:51.962Z,-1.28
2019-01-20T08:32:52.548Z,-1.36
2019-01-20T08:33:53.165Z,-1.50
2019-01-20T08:34:53.752Z,-1.64
2019-01-20T08:35:54.350Z,-1.64
2019-01-20T08:36:54.955Z,-1.73
2019-01-20T08:37:55.539Z,-1.90
2019-01-20T08:38:56.145Z,-1.79
2019-01-20T08:39:56.731Z,-1.94
2019-01-20T08:40:57.328Z,-2.00
2019-01-20T08:41:57.920Z,-2.11
2019-01-20T08:42:58.508Z,-2.14
2019-01-20T08:43:59.106Z,-2.11
2019-01-20T08:44:59.696Z,-2.17
2019-01-20T08:46:00.295Z,-2.24
2019-01-20T08:47:00.889Z,-2.21
2019-01-20T08:48:01.510Z,-2.24
2019-01-20T08:49:02.083Z,-2.30
2019-01-20T08:50:02.684Z,-2.25
2019-01-20T08:51:03.279Z,-2.22
2019-01-20T08:52:03.878Z,-2.29
2019-01-20T08:53:04.471Z,-2.36
2019-01-20T08:54:05.063Z,-2.28
2019-01-20T08:55:05.664Z,-2.19
2019-01-20T08:56:06.261Z,-2.19
2019-01-20T08:57:06.857Z,-2.22
2019-01-20T08:58:07.455Z,-2.21
2019-01-20T08:59:08.050Z,-2.12
2019-01-20T09:00:08.639Z,-2.12
2019-01-20T09:01:09.238Z,-2.11
2019-01-20T09:02:09.840Z,-1.99
2019-01-20T09:03:10.426Z,-2.04
2019-01-20T09:04:11.016Z,-2.11
2019-01-20T09:05:11.614Z,-1.94
2019-01-20T09:06:12.207Z,-1.79
2019-01-20T09:07:12.794Z,-1.65
2019-01-20T09:08:13.384Z,-1.57
2019-01-20T09:09:13.983Z,-1.54
2019-01-20T09:10:14.577Z,-1.52
2019-01-20T09:11:15.164Z,-1.39
2019-01-20T09:12:15.752Z,-1.24
2019-01-20T09:13:16.354Z,-1.18
2019-01-20T09:14:16.950Z,-1.13
2019-01-20T09:15:17.548Z,-0.93
2019-01-20T09:16:18.146Z,-0.82
2019-01-20T09:17:18.754Z,-0.68
2019-01-20T09:18:19.341Z,-0.58
2019-01-20T09:19:19.941Z,-0.43
2019-01-20T09:20:20.538Z,-0.50
2019-01-20T09:21:21.141Z,-0.25
2019-01-20T09:22:21.740Z,-0.04
2019-01-20T09:23:22.334Z,0.09
2019-01-20T09:24:22.930Z,0.30
2019-01-20T09:25:23.531Z,0.15
2019-01-20T09:26:24.136Z,0.30
2019-01-20T09:27:24.735Z,0.11
2019-01-20T09:28:25.330Z,-0.01
2019-01-20T09:29:25.935Z,-0.22
2019-01-20T09:30:26.528Z,-0.27
2019-01-20T09:31:27.133Z,-0.37
2019-01-20T09:32:27.727Z,-0.40
2019-01-20T09:33:28.320Z,-0.50
2019-01-20T09:34:28.917Z,-0.52
2019-01-20T09:35:29.514Z,-0.53
2019-01-20T09:36:30.116Z,-0.55
2019-01-20T09:37:30.704Z,-0.58
2019-01-20T09:38:31.308Z,-0.61
2019-01-20T09:39:31.915Z,-0.43
2019-01-20T09:40:32.498Z,-0.27
2019-01-20T09:41:33.101Z,-0.27
2019-01-20T09:42:33.697Z,0.08
2019-01-20T09:43:34.297Z,0.19
2019-01-20T09:44:34.896Z,0.44
2019-01-20T09:45:35.495Z,0.38
2019-01-20T09:46:36.087Z,0.43
2019-01-20T09:47:36.693Z,0.22
2019-01-20T09:48:37.851Z,0.23
2019-01-20T09:49:37.880Z,0.40
2019-01-20T09:50:38.480Z,0.41
2019-01-20T09:51:39.080Z,0.48
2019-01-20T09:52:39.682Z,0.91
2019-01-20T09:53:40.279Z,1.00
2019-01-20T09:54:40.873Z,1.13
2019-01-20T09:55:41.477Z,1.14
2019-01-20T09:56:42.078Z,1.23
2019-01-20T09:57:42.676Z,1.32
2019-01-20T09:58:43.274Z,1.32
2019-01-20T09:59:43.885Z,1.21
2019-01-20T10:00:44.494Z,0.96
2019-01-20T10:01:45.089Z,0.70
2019-01-20T10:02:45.691Z,0.57
2019-01-20T10:03:46.285Z,0.50
2019-01-20T10:04:46.878Z,0.52
2019-01-20T10:05:47.477Z,0.63
2019-01-20T10:06:48.082Z,0.84
2019-01-20T10:07:48.677Z,0.85
2019-01-20T10:08:49.272Z,1.05
2019-01-20T10:09:49.863Z,1.18
2019-01-20T10:10:50.466Z,1.26
2019-01-20T10:11:51.071Z,1.59
2019-01-20T10:12:51.669Z,1.81
2019-01-20T10:13:55.028Z,1.95
2019-01-20T10:14:52.880Z,2.01
2019-01-20T10:15:53.461Z,2.03
2019-01-20T10:16:54.060Z,1.77
2019-01-20T10:17:54.665Z,1.84
2019-01-20T10:18:55.261Z,1.74
2019-01-20T10:19:55.863Z,1.57
2019-01-20T10:20:56.455Z,1.45
2019-01-20T10:21:57.056Z,1.48
2019-01-20T10:22:57.656Z,1.81
2019-01-20T10:23:58.261Z,1.95
2019-01-20T10:24:58.858Z,2.00
2019-01-20T10:25:59.464Z,2.29
2019-01-20T10:27:00.065Z,2.35
2019-01-20T10:28:00.667Z,2.32
2019-01-20T10:29:01.271Z,2.47
2019-01-20T10:30:01.871Z,2.48
2019-01-20T10:31:02.474Z,2.46
2019-01-20T10:32:03.078Z,2.29
2019-01-20T10:33:03.699Z,1.99
2019-01-20T10:34:04.276Z,1.89
2019-01-20T10:35:04.880Z,2.04
2019-01-20T10:36:05.482Z,2.18
2019-01-20T10:37:06.080Z,2.36
2019-01-20T10:38:06.685Z,2.55
2019-01-20T10:39:07.278Z,2.46
2019-01-20T10:40:07.879Z,2.57
2019-01-20T10:41:08.482Z,2.72
2019-01-20T10:42:09.071Z,2.82
2019-01-20T10:43:09.677Z,2.94
2019-01-20T10:44:10.276Z,2.89
2019-01-20T10:45:10.868Z,3.25
2019-01-20T10:46:11.480Z,3.19
2019-01-20T10:47:12.087Z,3.45
2019-01-20T10:48:12.687Z,3.60
2019-01-20T10:49:13.285Z,3.88
2019-01-20T10:50:13.882Z,3.85
2019-01-20T10:51:14.482Z,3.85
2019-01-20T10:52:15.084Z,3.77
2019-01-20T10:53:15.678Z,3.72
2019-01-20T10:54:16.278Z,4.05
2019-01-20T10:55:16.867Z,4.20
2019-01-20T10:56:17.466Z,4.31
2019-01-20T10:57:18.064Z,4.39
2019-01-20T10:58:18.671Z,4.38
2019-01-20T10:59:19.272Z,4.41
2019-01-20T11:00:19.875Z,4.35
2019-01-20T11:01:20.477Z,4.42
2019-01-20T11:02:21.123Z,4.41
2019-01-20T11:03:21.663Z,4.59
2019-01-20T11:04:22.258Z,4.57
2019-01-20T11:05:25.099Z,4.44
2019-01-20T11:06:24.439Z,4.53
2019-01-20T11:07:25.035Z,4.42
2019-01-20T11:08:25.624Z,4.48
2019-01-20T11:09:26.219Z,4.45
2019-01-20T11:10:26.820Z,4.64
2019-01-20T11:11:27.416Z,4.56
2019-01-20T11:12:28.018Z,4.46
2019-01-20T11:13:28.614Z,4.41
2019-01-20T11:14:29.217Z,4.50
2019-01-20T11:15:29.820Z,4.68
2019-01-20T11:16:30.429Z,4.78
2019-01-20T11:17:31.024Z,4.54
2019-01-20T11:18:31.618Z,4.75
2019-01-20T11:19:32.233Z,5.04
2019-01-20T11:20:32.837Z,5.26
2019-01-20T11:21:33.424Z,4.86
2019-01-20T11:22:34.027Z,4.78
2019-01-20T11:23:34.632Z,5.12
2019-01-20T11:24:35.233Z,5.19
2019-01-20T11:25:35.842Z,5.37
2019-01-20T11:26:36.431Z,5.30
2019-01-20T11:27:37.034Z,5.45
2019-01-20T11:28:37.637Z,5.24
2019-01-20T11:29:38.238Z,5.47
2019-01-20T11:30:38.845Z,5.52
2019-01-20T11:31:39.451Z,5.88
2019-01-20T11:32:42.496Z,6.08
2019-01-20T11:33:40.649Z,6.20
2019-01-20T11:34:41.257Z,6.34
2019-01-20T11:35:41.863Z,6.27
2019-01-20T11:36:42.454Z,5.97
2019-01-20T11:37:43.050Z,5.81
2019-01-20T11:38:43.684Z,5.86
2019-01-20T11:39:44.260Z,5.99
2019-01-20T11:40:44.862Z,5.84
2019-01-20T11:41:45.466Z,6.12
2019-01-20T11:42:46.070Z,6.09
2019-01-20T11:43:46.661Z,5.87
2019-01-20T11:44:47.271Z,5.54
2019-01-20T11:45:47.868Z,5.47
2019-01-20T11:46:48.466Z,5.14
2019-01-20T11:47:49.063Z,4.93
2019-01-20T11:48:49.669Z,5.08
2019-01-20T11:49:50.280Z,4.91
2019-01-20T11:50:50.875Z,4.71
2019-01-20T11:51:51.470Z,4.46
2019-01-20T11:52:52.071Z,4.42
2019-01-20T11:53:52.672Z,4.50
2019-01-20T11:54:53.273Z,4.00
2019-01-20T11:55:53.869Z,4.28
2019-01-20T11:56:54.470Z,4.16
2019-01-20T11:57:55.065Z,4.36
2019-01-20T11:58:55.669Z,4.32
2019-01-20T11:59:56.300Z,4.52
2019-01-20T12:00:56.873Z,4.62
2019-01-20T12:01:57.474Z,4.59
2019-01-20T12:02:58.079Z,4.74
2019-01-20T12:03:58.714Z,4.86
2019-01-20T12:04:59.286Z,4.89
2019-01-20T12:05:59.880Z,5.12
2019-01-20T12:07:00.472Z,5.03
2019-01-20T12:08:01.070Z,4.77
2019-01-20T12:09:01.710Z,4.59
2019-01-20T12:10:02.267Z,4.42
2019-01-20T12:11:02.887Z,4.18
2019-01-20T12:12:03.470Z,4.14
2019-01-20T12:13:04.068Z,4.28
2019-01-20T12:14:04.661Z,4.14
2019-01-20T12:15:05.265Z,3.99
2019-01-20T12:16:05.871Z,3.98
2019-01-20T12:17:06.468Z,4.05
2019-01-20T12:18:07.061Z,4.17
2019-01-20T12:19:07.667Z,4.36
2019-01-20T12:20:08.263Z,4.14
2019-01-20T12:21:08.860Z,3.88
2019-01-20T12:22:09.462Z,3.73
2019-01-20T12:23:10.060Z,3.57
2019-01-20T12:24:10.663Z,3.55
2019-01-20T12:25:11.261Z,3.54
2019-01-20T12:26:11.866Z,3.41
2019-01-20T12:27:12.456Z,3.42
2019-01-20T12:28:13.054Z,3.30
2019-01-20T12:29:13.654Z,3.05
2019-01-20T12:30:14.255Z,2.96
2019-01-20T12:31:14.855Z,2.91
2019-01-20T12:32:15.454Z,2.96
2019-01-20T12:33:16.056Z,2.93
2019-01-20T12:34:16.647Z,2.96
2019-01-20T12:35:17.247Z,2.93
2019-01-20T12:36:17.850Z,2.68
2019-01-20T12:37:18.455Z,2.72
2019-01-20T12:38:19.051Z,2.83
2019-01-20T12:39:19.651Z,2.66
2019-01-20T12:40:20.252Z,2.57
2019-01-20T12:41:20.853Z,2.50
2019-01-20T12:42:21.441Z,2.36
2019-01-20T12:43:22.042Z,2.36
2019-01-20T12:44:22.642Z,2.32
2019-01-20T12:45:23.243Z,2.07
2019-01-20T12:46:23.841Z,1.99
2019-01-20T12:47:24.431Z,1.81
2019-01-20T12:48:25.021Z,1.64
2019-01-20T12:49:25.632Z,1.59
2019-01-20T12:50:26.219Z,1.56
2019-01-20T12:51:28.655Z,1.45
2019-01-20T12:52:27.411Z,1.53
2019-01-20T12:53:28.008Z,1.53
2019-01-20T12:54:28.610Z,1.46
2019-01-20T12:55:29.200Z,1.35
2019-01-20T12:56:29.797Z,1.35
2019-01-20T12:57:30.404Z,1.27
2019-01-20T12:58:30.997Z,1.28
2019-01-20T12:59:31.618Z,1.27
2019-01-20T13:00:32.193Z,1.27
2019-01-20T13:01:32.784Z,1.21
2019-01-20T13:02:33.381Z,1.16
2019-01-20T13:03:33.973Z,1.10
2019-01-20T13:04:34.571Z,1.09
2019-01-20T13:05:35.162Z,1.10
2019-01-20T13:06:35.764Z,1.17
2019-01-20T13:07:36.360Z,1.17
2019-01-20T13:08:36.961Z,1.06